sensor_id;sensor_type;location;lat;lon;timestamp;temperature;humidity
20337;DHT22;10326;53.660;10.200;2023-04-08T00:02:19;10.10;68.90
20337;DHT22;10326;53.660;10.200;2023-04-08T00:04:46;10.10;69.00
20337;DHT22;10326;53.660;10.200;2023-04-08T00:07:14;10.10;69.00
20337;DHT22;10326;53.660;10.200;2023-04-08T00:09:42;10.10;69.10
20337;DHT22;10326;53.660;10.200;2023-04-08T00:12:10;10.10;69.30
20337;DHT22;10326;53.660;10.200;2023-04-08T00:14:37;10.10;69.20
20337;DHT22;10326;53.660;10.200;2023-04-08T00:17:06;10.10;69.30
20337;DHT22;10326;53.660;10.200;2023-04-08T00:19:33;10.10;69.40
20337;DHT22;10326;53.660;10.200;2023-04-08T00:22:00;10.10;69.50
20337;DHT22;10326;53.660;10.200;2023-04-08T00:24:28;10.10;69.70
20337;DHT22;10326;53.660;10.200;2023-04-08T00:26:56;10.10;69.80
20337;DHT22;10326;53.660;10.200;2023-04-08T00:29:23;10.10;70.10
20337;DHT22;10326;53.660;10.200;2023-04-08T00:31:51;10.10;70.00
20337;DHT22;10326;53.660;10.200;2023-04-08T00:34:18;10.10;70.10
20337;DHT22;10326;53.660;10.200;2023-04-08T00:36:46;10.10;70.20
20337;DHT22;10326;53.660;10.200;2023-04-08T00:39:13;10.10;70.20
20337;DHT22;10326;53.660;10.200;2023-04-08T00:41:40;10.10;70.40
20337;DHT22;10326;53.660;10.200;2023-04-08T00:44:09;10.10;70.50
20337;DHT22;10326;53.660;10.200;2023-04-08T00:46:38;10.10;70.70
20337;DHT22;10326;53.660;10.200;2023-04-08T00:49:06;10.10;70.80
20337;DHT22;10326;53.660;10.200;2023-04-08T00:51:34;10.10;70.70
20337;DHT22;10326;53.660;10.200;2023-04-08T00:54:02;10.10;70.80
20337;DHT22;10326;53.660;10.200;2023-04-08T00:56:31;10.10;70.90
20337;DHT22;10326;53.660;10.200;2023-04-08T00:59:00;10.10;71.00
20337;DHT22;10326;53.660;10.200;2023-04-08T01:01:41;10.10;71.00
20337;DHT22;10326;53.660;10.200;2023-04-08T01:04:16;10.10;71.60
20337;DHT22;10326;53.660;10.200;2023-04-08T01:06:50;10.10;71.40
20337;DHT22;10326;53.660;10.200;2023-04-08T01:09:22;10.10;71.20
20337;DHT22;10326;53.660;10.200;2023-04-08T01:11:53;10.10;71.40
20337;DHT22;10326;53.660;10.200;2023-04-08T01:14:25;10.10;71.20
20337;DHT22;10326;53.660;10.200;2023-04-08T01:16:54;10.10;71.60
20337;DHT22;10326;53.660;10.200;2023-04-08T01:19:26;10.10;71.50
20337;DHT22;10326;53.660;10.200;2023-04-08T01:22:01;10.10;71.70
20337;DHT22;10326;53.660;10.200;2023-04-08T01:24:35;10.00;71.90
20337;DHT22;10326;53.660;10.200;2023-04-08T01:27:04;10.00;71.70
20337;DHT22;10326;53.660;10.200;2023-04-08T01:29:34;10.10;71.60
20337;DHT22;10326;53.660;10.200;2023-04-08T01:32:01;10.00;71.60
20337;DHT22;10326;53.660;10.200;2023-04-08T01:34:30;10.00;71.60
20337;DHT22;10326;53.660;10.200;2023-04-08T01:36:57;10.00;71.70
20337;DHT22;10326;53.660;10.200;2023-04-08T01:39:25;10.00;71.60
20337;DHT22;10326;53.660;10.200;2023-04-08T01:41:54;10.00;71.70
20337;DHT22;10326;53.660;10.200;2023-04-08T01:44:25;9.90;71.70
20337;DHT22;10326;53.660;10.200;2023-04-08T01:46:54;9.90;72.10
20337;DHT22;10326;53.660;10.200;2023-04-08T01:49:23;9.90;71.90
20337;DHT22;10326;53.660;10.200;2023-04-08T01:51:51;9.90;72.10
20337;DHT22;10326;53.660;10.200;2023-04-08T01:54:19;9.90;72.10
20337;DHT22;10326;53.660;10.200;2023-04-08T01:56:47;9.90;72.10
20337;DHT22;10326;53.660;10.200;2023-04-08T01:59:16;9.90;72.20
20337;DHT22;10326;53.660;10.200;2023-04-08T02:01:47;9.90;72.20
20337;DHT22;10326;53.660;10.200;2023-04-08T02:04:15;9.90;72.30
20337;DHT22;10326;53.660;10.200;2023-04-08T02:06:44;9.90;72.20
20337;DHT22;10326;53.660;10.200;2023-04-08T02:09:12;9.90;72.20
20337;DHT22;10326;53.660;10.200;2023-04-08T02:11:39;9.90;72.30
20337;DHT22;10326;53.660;10.200;2023-04-08T02:14:06;9.90;72.40
20337;DHT22;10326;53.660;10.200;2023-04-08T02:16:39;9.90;72.50
20337;DHT22;10326;53.660;10.200;2023-04-08T02:19:17;9.90;73.00
20337;DHT22;10326;53.660;10.200;2023-04-08T02:21:48;9.80;72.80
20337;DHT22;10326;53.660;10.200;2023-04-08T02:24:19;9.90;72.70
20337;DHT22;10326;53.660;10.200;2023-04-08T02:26:48;9.90;72.70
20337;DHT22;10326;53.660;10.200;2023-04-08T02:29:17;9.80;72.60
20337;DHT22;10326;53.660;10.200;2023-04-08T02:31:45;9.80;72.70
20337;DHT22;10326;53.660;10.200;2023-04-08T02:34:17;9.80;72.70
20337;DHT22;10326;53.660;10.200;2023-04-08T02:36:46;9.80;73.00
20337;DHT22;10326;53.660;10.200;2023-04-08T02:39:16;9.80;72.90
20337;DHT22;10326;53.660;10.200;2023-04-08T02:41:47;9.80;73.00
20337;DHT22;10326;53.660;10.200;2023-04-08T02:44:14;9.70;73.00
20337;DHT22;10326;53.660;10.200;2023-04-08T02:46:41;9.70;73.10
20337;DHT22;10326;53.660;10.200;2023-04-08T02:49:08;9.70;73.20
20337;DHT22;10326;53.660;10.200;2023-04-08T02:51:37;9.70;73.20
20337;DHT22;10326;53.660;10.200;2023-04-08T02:54:04;9.70;73.40
20337;DHT22;10326;53.660;10.200;2023-04-08T02:56:31;9.70;73.30
20337;DHT22;10326;53.660;10.200;2023-04-08T02:58:58;9.70;73.30
20337;DHT22;10326;53.660;10.200;2023-04-08T03:01:25;9.70;73.40
20337;DHT22;10326;53.660;10.200;2023-04-08T03:03:52;9.70;73.40
20337;DHT22;10326;53.660;10.200;2023-04-08T03:06:19;9.70;73.50
20337;DHT22;10326;53.660;10.200;2023-04-08T03:08:48;9.70;73.50
20337;DHT22;10326;53.660;10.200;2023-04-08T03:11:15;9.60;73.80
20337;DHT22;10326;53.660;10.200;2023-04-08T03:13:42;9.60;73.70
20337;DHT22;10326;53.660;10.200;2023-04-08T03:16:09;9.60;73.80
20337;DHT22;10326;53.660;10.200;2023-04-08T03:18:36;9.60;73.80
20337;DHT22;10326;53.660;10.200;2023-04-08T03:21:03;9.60;73.90
20337;DHT22;10326;53.660;10.200;2023-04-08T03:23:31;9.50;73.90
20337;DHT22;10326;53.660;10.200;2023-04-08T03:25:59;9.50;74.10
20337;DHT22;10326;53.660;10.200;2023-04-08T03:28:26;9.50;74.30
20337;DHT22;10326;53.660;10.200;2023-04-08T03:30:53;9.50;74.30
20337;DHT22;10326;53.660;10.200;2023-04-08T03:33:20;9.50;74.40
20337;DHT22;10326;53.660;10.200;2023-04-08T03:35:47;9.50;74.40
20337;DHT22;10326;53.660;10.200;2023-04-08T03:38:14;9.50;74.50
20337;DHT22;10326;53.660;10.200;2023-04-08T03:40:41;9.50;74.60
20337;DHT22;10326;53.660;10.200;2023-04-08T03:43:09;9.50;74.70
20337;DHT22;10326;53.660;10.200;2023-04-08T03:45:37;9.50;74.90
20337;DHT22;10326;53.660;10.200;2023-04-08T03:48:05;9.50;74.80
20337;DHT22;10326;53.660;10.200;2023-04-08T03:50:32;9.50;74.80
20337;DHT22;10326;53.660;10.200;2023-04-08T03:52:59;9.50;74.80
20337;DHT22;10326;53.660;10.200;2023-04-08T03:55:26;9.50;74.80
20337;DHT22;10326;53.660;10.200;2023-04-08T03:57:54;9.50;74.80
20337;DHT22;10326;53.660;10.200;2023-04-08T04:00:22;9.60;75.00
20337;DHT22;10326;53.660;10.200;2023-04-08T04:02:49;9.50;75.10
20337;DHT22;10326;53.660;10.200;2023-04-08T04:05:16;9.50;75.00
20337;DHT22;10326;53.660;10.200;2023-04-08T04:07:44;9.60;75.20
20337;DHT22;10326;53.660;10.200;2023-04-08T04:10:11;9.50;75.20
20337;DHT22;10326;53.660;10.200;2023-04-08T04:12:38;9.50;75.20
20337;DHT22;10326;53.660;10.200;2023-04-08T04:15:06;9.50;75.20
20337;DHT22;10326;53.660;10.200;2023-04-08T04:17:35;9.50;75.30
20337;DHT22;10326;53.660;10.200;2023-04-08T04:20:03;9.60;75.30
20337;DHT22;10326;53.660;10.200;2023-04-08T04:22:31;9.50;75.30
20337;DHT22;10326;53.660;10.200;2023-04-08T04:24:58;9.50;75.40
20337;DHT22;10326;53.660;10.200;2023-04-08T04:27:25;9.50;75.30
20337;DHT22;10326;53.660;10.200;2023-04-08T04:29:52;9.50;75.40
20337;DHT22;10326;53.660;10.200;2023-04-08T04:32:19;9.60;75.50
20337;DHT22;10326;53.660;10.200;2023-04-08T04:34:48;9.50;75.50
20337;DHT22;10326;53.660;10.200;2023-04-08T04:37:15;9.50;75.70
20337;DHT22;10326;53.660;10.200;2023-04-08T04:39:43;9.50;75.60
20337;DHT22;10326;53.660;10.200;2023-04-08T04:42:10;9.50;75.70
20337;DHT22;10326;53.660;10.200;2023-04-08T04:44:37;9.50;75.90
20337;DHT22;10326;53.660;10.200;2023-04-08T04:47:04;9.50;75.80
20337;DHT22;10326;53.660;10.200;2023-04-08T04:49:31;9.50;75.80
20337;DHT22;10326;53.660;10.200;2023-04-08T04:51:59;9.50;75.90
20337;DHT22;10326;53.660;10.200;2023-04-08T04:54:26;9.50;76.10
20337;DHT22;10326;53.660;10.200;2023-04-08T04:56:53;9.50;76.00
20337;DHT22;10326;53.660;10.200;2023-04-08T04:59:20;9.50;76.10
20337;DHT22;10326;53.660;10.200;2023-04-08T05:01:47;9.50;76.20
20337;DHT22;10326;53.660;10.200;2023-04-08T05:04:14;9.50;76.20
20337;DHT22;10326;53.660;10.200;2023-04-08T05:06:41;9.50;76.20
20337;DHT22;10326;53.660;10.200;2023-04-08T05:09:10;9.50;76.30
20337;DHT22;10326;53.660;10.200;2023-04-08T05:11:37;9.50;76.40
20337;DHT22;10326;53.660;10.200;2023-04-08T05:14:04;9.50;76.30
20337;DHT22;10326;53.660;10.200;2023-04-08T05:16:31;9.50;76.40
20337;DHT22;10326;53.660;10.200;2023-04-08T05:18:58;9.50;76.50
20337;DHT22;10326;53.660;10.200;2023-04-08T05:21:26;9.50;76.50
20337;DHT22;10326;53.660;10.200;2023-04-08T05:23:53;9.50;76.60
20337;DHT22;10326;53.660;10.200;2023-04-08T05:26:22;9.50;76.60
20337;DHT22;10326;53.660;10.200;2023-04-08T05:28:49;9.50;76.60
20337;DHT22;10326;53.660;10.200;2023-04-08T05:31:17;9.50;76.60
20337;DHT22;10326;53.660;10.200;2023-04-08T05:33:45;9.50;76.60
20337;DHT22;10326;53.660;10.200;2023-04-08T05:36:12;9.50;76.60
20337;DHT22;10326;53.660;10.200;2023-04-08T05:38:40;9.60;76.80
20337;DHT22;10326;53.660;10.200;2023-04-08T05:41:08;9.60;76.80
20337;DHT22;10326;53.660;10.200;2023-04-08T05:43:37;9.50;76.70
20337;DHT22;10326;53.660;10.200;2023-04-08T05:46:08;9.60;76.90
20337;DHT22;10326;53.660;10.200;2023-04-08T05:48:36;9.60;77.00
20337;DHT22;10326;53.660;10.200;2023-04-08T05:51:03;9.60;76.90
20337;DHT22;10326;53.660;10.200;2023-04-08T05:53:30;9.50;76.80
20337;DHT22;10326;53.660;10.200;2023-04-08T05:55:57;9.50;76.90
20337;DHT22;10326;53.660;10.200;2023-04-08T05:58:24;9.50;77.00
20337;DHT22;10326;53.660;10.200;2023-04-08T06:00:54;9.50;77.00
20337;DHT22;10326;53.660;10.200;2023-04-08T06:03:21;9.50;77.20
20337;DHT22;10326;53.660;10.200;2023-04-08T06:05:48;9.50;77.10
20337;DHT22;10326;53.660;10.200;2023-04-08T06:08:15;9.50;77.00
20337;DHT22;10326;53.660;10.200;2023-04-08T06:10:47;9.50;77.10
20337;DHT22;10326;53.660;10.200;2023-04-08T06:13:15;9.50;78.10
20337;DHT22;10326;53.660;10.200;2023-04-08T06:15:42;9.50;77.10
20337;DHT22;10326;53.660;10.200;2023-04-08T06:18:11;9.50;77.30
20337;DHT22;10326;53.660;10.200;2023-04-08T06:20:38;9.50;77.50
20337;DHT22;10326;53.660;10.200;2023-04-08T06:23:05;9.50;77.40
20337;DHT22;10326;53.660;10.200;2023-04-08T06:25:33;9.50;77.40
20337;DHT22;10326;53.660;10.200;2023-04-08T06:28:00;9.50;77.30
20337;DHT22;10326;53.660;10.200;2023-04-08T06:30:28;9.50;77.30
20337;DHT22;10326;53.660;10.200;2023-04-08T06:32:55;9.50;77.50
20337;DHT22;10326;53.660;10.200;2023-04-08T06:35:23;9.50;77.50
20337;DHT22;10326;53.660;10.200;2023-04-08T06:37:50;9.60;77.60
20337;DHT22;10326;53.660;10.200;2023-04-08T06:40:17;9.60;77.60
20337;DHT22;10326;53.660;10.200;2023-04-08T06:42:44;9.50;77.60
20337;DHT22;10326;53.660;10.200;2023-04-08T06:45:20;9.50;77.70
20337;DHT22;10326;53.660;10.200;2023-04-08T06:47:47;9.60;77.80
20337;DHT22;10326;53.660;10.200;2023-04-08T06:50:14;9.60;77.70
20337;DHT22;10326;53.660;10.200;2023-04-08T06:52:43;9.60;77.80
20337;DHT22;10326;53.660;10.200;2023-04-08T06:55:10;9.60;78.00
20337;DHT22;10326;53.660;10.200;2023-04-08T06:57:37;9.60;78.00
20337;DHT22;10326;53.660;10.200;2023-04-08T07:00:05;9.60;78.00
20337;DHT22;10326;53.660;10.200;2023-04-08T07:02:33;9.60;78.10
20337;DHT22;10326;53.660;10.200;2023-04-08T07:05:00;9.60;78.00
20337;DHT22;10326;53.660;10.200;2023-04-08T07:07:29;9.60;77.90
20337;DHT22;10326;53.660;10.200;2023-04-08T07:09:58;9.60;78.00
20337;DHT22;10326;53.660;10.200;2023-04-08T07:12:25;9.60;78.10
20337;DHT22;10326;53.660;10.200;2023-04-08T07:14:52;9.60;78.20
20337;DHT22;10326;53.660;10.200;2023-04-08T07:17:19;9.60;78.30
20337;DHT22;10326;53.660;10.200;2023-04-08T07:19:46;9.60;78.50
20337;DHT22;10326;53.660;10.200;2023-04-08T07:22:14;9.60;78.50
20337;DHT22;10326;53.660;10.200;2023-04-08T07:24:41;9.60;78.50
20337;DHT22;10326;53.660;10.200;2023-04-08T07:27:15;9.60;78.40
20337;DHT22;10326;53.660;10.200;2023-04-08T07:29:42;9.60;78.40
20337;DHT22;10326;53.660;10.200;2023-04-08T07:32:10;9.60;78.30
20337;DHT22;10326;53.660;10.200;2023-04-08T07:34:38;9.60;78.30
20337;DHT22;10326;53.660;10.200;2023-04-08T07:37:05;9.60;78.30
20337;DHT22;10326;53.660;10.200;2023-04-08T07:39:32;9.60;78.40
20337;DHT22;10326;53.660;10.200;2023-04-08T07:42:00;9.60;78.30
20337;DHT22;10326;53.660;10.200;2023-04-08T07:44:28;9.60;78.40
20337;DHT22;10326;53.660;10.200;2023-04-08T07:46:56;9.60;78.30
20337;DHT22;10326;53.660;10.200;2023-04-08T07:49:23;9.60;78.40
20337;DHT22;10326;53.660;10.200;2023-04-08T07:51:50;9.60;78.50
20337;DHT22;10326;53.660;10.200;2023-04-08T07:54:17;9.60;78.50
20337;DHT22;10326;53.660;10.200;2023-04-08T07:56:45;9.60;78.60
20337;DHT22;10326;53.660;10.200;2023-04-08T07:59:12;9.60;78.70
20337;DHT22;10326;53.660;10.200;2023-04-08T08:01:40;9.60;79.30
20337;DHT22;10326;53.660;10.200;2023-04-08T08:04:08;9.60;78.90
20337;DHT22;10326;53.660;10.200;2023-04-08T08:06:35;9.60;78.90
20337;DHT22;10326;53.660;10.200;2023-04-08T08:09:02;9.60;79.00
20337;DHT22;10326;53.660;10.200;2023-04-08T08:11:29;9.70;79.10
20337;DHT22;10326;53.660;10.200;2023-04-08T08:13:57;9.70;79.10
20337;DHT22;10326;53.660;10.200;2023-04-08T08:16:27;9.70;79.10
20337;DHT22;10326;53.660;10.200;2023-04-08T08:18:55;9.70;79.30
20337;DHT22;10326;53.660;10.200;2023-04-08T08:21:23;9.70;79.30
20337;DHT22;10326;53.660;10.200;2023-04-08T08:23:51;9.70;79.20
20337;DHT22;10326;53.660;10.200;2023-04-08T08:26:19;9.70;79.10
20337;DHT22;10326;53.660;10.200;2023-04-08T08:28:47;9.70;79.10
20337;DHT22;10326;53.660;10.200;2023-04-08T08:31:14;9.80;79.20
20337;DHT22;10326;53.660;10.200;2023-04-08T08:33:41;9.80;79.20
20337;DHT22;10326;53.660;10.200;2023-04-08T08:36:09;9.80;79.30
20337;DHT22;10326;53.660;10.200;2023-04-08T08:38:36;9.80;79.40
20337;DHT22;10326;53.660;10.200;2023-04-08T08:41:03;9.80;79.40
20337;DHT22;10326;53.660;10.200;2023-04-08T08:43:31;9.80;79.40
20337;DHT22;10326;53.660;10.200;2023-04-08T08:45:59;9.80;79.50
20337;DHT22;10326;53.660;10.200;2023-04-08T08:48:26;9.90;79.60
20337;DHT22;10326;53.660;10.200;2023-04-08T08:50:53;9.90;79.50
20337;DHT22;10326;53.660;10.200;2023-04-08T08:53:28;9.90;79.40
20337;DHT22;10326;53.660;10.200;2023-04-08T08:55:56;9.90;79.80
20337;DHT22;10326;53.660;10.200;2023-04-08T08:58:25;10.00;79.50
20337;DHT22;10326;53.660;10.200;2023-04-08T09:00:53;9.90;79.60
20337;DHT22;10326;53.660;10.200;2023-04-08T09:03:23;10.00;79.60
20337;DHT22;10326;53.660;10.200;2023-04-08T09:05:53;10.00;79.90
20337;DHT22;10326;53.660;10.200;2023-04-08T09:08:28;10.00;79.70
20337;DHT22;10326;53.660;10.200;2023-04-08T09:11:09;10.10;80.00
20337;DHT22;10326;53.660;10.200;2023-04-08T09:13:37;10.10;79.80
20337;DHT22;10326;53.660;10.200;2023-04-08T09:16:05;10.10;79.70
20337;DHT22;10326;53.660;10.200;2023-04-08T09:18:34;10.10;79.70
20337;DHT22;10326;53.660;10.200;2023-04-08T09:21:02;10.20;79.60
20337;DHT22;10326;53.660;10.200;2023-04-08T09:23:39;10.20;79.50
20337;DHT22;10326;53.660;10.200;2023-04-08T09:26:07;10.20;79.70
20337;DHT22;10326;53.660;10.200;2023-04-08T09:28:35;10.20;79.40
20337;DHT22;10326;53.660;10.200;2023-04-08T09:31:18;10.20;79.50
20337;DHT22;10326;53.660;10.200;2023-04-08T09:33:46;10.20;80.10
20337;DHT22;10326;53.660;10.200;2023-04-08T09:36:14;10.20;79.60
20337;DHT22;10326;53.660;10.200;2023-04-08T09:38:45;10.20;79.60
20337;DHT22;10326;53.660;10.200;2023-04-08T09:41:13;10.20;79.90
20337;DHT22;10326;53.660;10.200;2023-04-08T09:43:42;10.30;79.80
20337;DHT22;10326;53.660;10.200;2023-04-08T09:46:14;10.30;79.60
20337;DHT22;10326;53.660;10.200;2023-04-08T09:48:48;10.30;79.50
20337;DHT22;10326;53.660;10.200;2023-04-08T09:51:18;10.30;79.60
20337;DHT22;10326;53.660;10.200;2023-04-08T09:53:55;10.30;79.40
20337;DHT22;10326;53.660;10.200;2023-04-08T09:56:29;10.30;79.70
20337;DHT22;10326;53.660;10.200;2023-04-08T09:59:08;10.30;79.40
20337;DHT22;10326;53.660;10.200;2023-04-08T10:01:38;10.30;79.50
20337;DHT22;10326;53.660;10.200;2023-04-08T10:04:14;10.40;79.40
20337;DHT22;10326;53.660;10.200;2023-04-08T10:06:42;10.40;79.50
20337;DHT22;10326;53.660;10.200;2023-04-08T10:09:11;10.40;79.90
20337;DHT22;10326;53.660;10.200;2023-04-08T10:11:39;10.40;79.50
20337;DHT22;10326;53.660;10.200;2023-04-08T10:14:08;10.40;79.40
20337;DHT22;10326;53.660;10.200;2023-04-08T10:16:36;10.40;79.60
20337;DHT22;10326;53.660;10.200;2023-04-08T10:19:35;10.40;79.50
20337;DHT22;10326;53.660;10.200;2023-04-08T10:25:32;10.40;79.90
20337;DHT22;10326;53.660;10.200;2023-04-08T10:28:00;10.40;79.70
20337;DHT22;10326;53.660;10.200;2023-04-08T10:30:41;10.40;79.40
20337;DHT22;10326;53.660;10.200;2023-04-08T10:33:10;10.40;80.00
20337;DHT22;10326;53.660;10.200;2023-04-08T10:35:40;10.50;79.70
20337;DHT22;10326;53.660;10.200;2023-04-08T10:38:12;10.50;79.80
20337;DHT22;10326;53.660;10.200;2023-04-08T10:40:42;10.50;79.10
20337;DHT22;10326;53.660;10.200;2023-04-08T10:43:10;10.50;79.70
20337;DHT22;10326;53.660;10.200;2023-04-08T10:45:38;10.50;79.70
20337;DHT22;10326;53.660;10.200;2023-04-08T10:48:13;10.50;79.70
20337;DHT22;10326;53.660;10.200;2023-04-08T10:50:42;10.50;80.00
20337;DHT22;10326;53.660;10.200;2023-04-08T10:53:10;10.60;79.80
20337;DHT22;10326;53.660;10.200;2023-04-08T10:55:37;10.60;79.70
20337;DHT22;10326;53.660;10.200;2023-04-08T10:58:06;10.60;79.70
20337;DHT22;10326;53.660;10.200;2023-04-08T11:00:35;10.60;79.70
20337;DHT22;10326;53.660;10.200;2023-04-08T11:03:03;10.60;79.60
20337;DHT22;10326;53.660;10.200;2023-04-08T11:05:32;10.60;79.50
20337;DHT22;10326;53.660;10.200;2023-04-08T11:08:00;10.70;79.50
20337;DHT22;10326;53.660;10.200;2023-04-08T11:10:27;10.70;79.30
20337;DHT22;10326;53.660;10.200;2023-04-08T11:12:55;10.70;79.40
20337;DHT22;10326;53.660;10.200;2023-04-08T11:15:24;10.70;79.40
20337;DHT22;10326;53.660;10.200;2023-04-08T11:17:51;10.70;79.40
20337;DHT22;10326;53.660;10.200;2023-04-08T11:20:19;10.70;79.40
20337;DHT22;10326;53.660;10.200;2023-04-08T11:22:47;10.70;79.50
20337;DHT22;10326;53.660;10.200;2023-04-08T11:25:15;10.70;79.60
20337;DHT22;10326;53.660;10.200;2023-04-08T11:27:42;10.70;79.70
20337;DHT22;10326;53.660;10.200;2023-04-08T11:30:10;10.70;79.60
20337;DHT22;10326;53.660;10.200;2023-04-08T11:32:39;10.70;79.60
20337;DHT22;10326;53.660;10.200;2023-04-08T11:35:06;10.80;80.20
20337;DHT22;10326;53.660;10.200;2023-04-08T11:37:37;10.80;79.60
20337;DHT22;10326;53.660;10.200;2023-04-08T11:40:07;10.80;79.70
20337;DHT22;10326;53.660;10.200;2023-04-08T11:42:34;10.80;79.50
20337;DHT22;10326;53.660;10.200;2023-04-08T11:45:09;10.80;79.40
20337;DHT22;10326;53.660;10.200;2023-04-08T11:47:38;10.80;80.10
20337;DHT22;10326;53.660;10.200;2023-04-08T11:50:07;10.80;79.40
20337;DHT22;10326;53.660;10.200;2023-04-08T11:52:42;10.80;79.40
20337;DHT22;10326;53.660;10.200;2023-04-08T11:55:10;10.80;79.40
20337;DHT22;10326;53.660;10.200;2023-04-08T11:57:37;10.80;79.30
20337;DHT22;10326;53.660;10.200;2023-04-08T12:00:06;10.80;79.30
20337;DHT22;10326;53.660;10.200;2023-04-08T12:02:36;10.80;79.40
20337;DHT22;10326;53.660;10.200;2023-04-08T12:05:05;10.80;80.00
20337;DHT22;10326;53.660;10.200;2023-04-08T12:07:32;10.80;79.50
20337;DHT22;10326;53.660;10.200;2023-04-08T12:09:59;10.80;79.40
20337;DHT22;10326;53.660;10.200;2023-04-08T12:12:27;10.80;79.50
20337;DHT22;10326;53.660;10.200;2023-04-08T12:14:54;10.80;79.60
20337;DHT22;10326;53.660;10.200;2023-04-08T12:17:21;10.90;79.70
20337;DHT22;10326;53.660;10.200;2023-04-08T12:19:48;10.90;79.70
20337;DHT22;10326;53.660;10.200;2023-04-08T12:22:16;10.90;79.70
20337;DHT22;10326;53.660;10.200;2023-04-08T12:24:43;10.90;79.60
20337;DHT22;10326;53.660;10.200;2023-04-08T12:27:10;11.00;79.60
20337;DHT22;10326;53.660;10.200;2023-04-08T12:29:37;11.00;79.40
20337;DHT22;10326;53.660;10.200;2023-04-08T12:32:04;11.00;79.40
20337;DHT22;10326;53.660;10.200;2023-04-08T12:34:32;11.00;79.40
20337;DHT22;10326;53.660;10.200;2023-04-08T12:36:59;11.00;79.40
20337;DHT22;10326;53.660;10.200;2023-04-08T12:39:28;11.00;79.50
20337;DHT22;10326;53.660;10.200;2023-04-08T12:41:55;11.00;79.60
20337;DHT22;10326;53.660;10.200;2023-04-08T12:44:22;11.00;79.60
20337;DHT22;10326;53.660;10.200;2023-04-08T12:46:49;11.00;79.60
20337;DHT22;10326;53.660;10.200;2023-04-08T12:49:17;11.00;79.50
20337;DHT22;10326;53.660;10.200;2023-04-08T12:51:44;11.00;79.50
20337;DHT22;10326;53.660;10.200;2023-04-08T12:54:11;11.10;79.60
20337;DHT22;10326;53.660;10.200;2023-04-08T12:56:39;11.10;79.50
20337;DHT22;10326;53.660;10.200;2023-04-08T12:59:08;11.10;79.50
20337;DHT22;10326;53.660;10.200;2023-04-08T13:01:35;11.10;79.50
20337;DHT22;10326;53.660;10.200;2023-04-08T13:04:02;11.10;79.50
20337;DHT22;10326;53.660;10.200;2023-04-08T13:06:29;11.10;79.60
20337;DHT22;10326;53.660;10.200;2023-04-08T13:08:57;11.10;79.60
20337;DHT22;10326;53.660;10.200;2023-04-08T13:11:24;11.10;79.40
20337;DHT22;10326;53.660;10.200;2023-04-08T13:13:53;11.10;79.40
20337;DHT22;10326;53.660;10.200;2023-04-08T13:16:20;11.10;79.20
20337;DHT22;10326;53.660;10.200;2023-04-08T13:21:15;11.10;79.30
20337;DHT22;10326;53.660;10.200;2023-04-08T13:23:42;11.20;79.30
20337;DHT22;10326;53.660;10.200;2023-04-08T13:26:11;11.20;79.40
20337;DHT22;10326;53.660;10.200;2023-04-08T13:28:38;11.20;79.30
20337;DHT22;10326;53.660;10.200;2023-04-08T13:31:07;11.20;79.30
20337;DHT22;10326;53.660;10.200;2023-04-08T13:36:01;11.20;79.30
20337;DHT22;10326;53.660;10.200;2023-04-08T13:38:28;11.20;79.20
20337;DHT22;10326;53.660;10.200;2023-04-08T13:40:55;11.20;79.10
20337;DHT22;10326;53.660;10.200;2023-04-08T13:43:22;11.20;79.20
20337;DHT22;10326;53.660;10.200;2023-04-08T13:45:49;11.20;79.10
20337;DHT22;10326;53.660;10.200;2023-04-08T13:48:18;11.20;79.00
20337;DHT22;10326;53.660;10.200;2023-04-08T13:50:46;11.20;79.00
20337;DHT22;10326;53.660;10.200;2023-04-08T13:53:13;11.20;78.90
20337;DHT22;10326;53.660;10.200;2023-04-08T13:55:41;11.20;79.00
20337;DHT22;10326;53.660;10.200;2023-04-08T13:58:08;11.20;79.00
20337;DHT22;10326;53.660;10.200;2023-04-08T14:00:35;11.20;79.00
20337;DHT22;10326;53.660;10.200;2023-04-08T14:03:02;11.20;79.00
20337;DHT22;10326;53.660;10.200;2023-04-08T14:05:31;11.20;79.10
20337;DHT22;10326;53.660;10.200;2023-04-08T14:07:58;11.20;79.30
20337;DHT22;10326;53.660;10.200;2023-04-08T14:10:25;11.20;79.10
20337;DHT22;10326;53.660;10.200;2023-04-08T14:12:52;11.20;79.20
20337;DHT22;10326;53.660;10.200;2023-04-08T14:15:19;11.20;79.30
20337;DHT22;10326;53.660;10.200;2023-04-08T14:17:46;11.20;79.40
20337;DHT22;10326;53.660;10.200;2023-04-08T14:20:14;11.20;79.40
20337;DHT22;10326;53.660;10.200;2023-04-08T14:22:42;11.20;79.40
20337;DHT22;10326;53.660;10.200;2023-04-08T14:25:10;11.20;79.30
20337;DHT22;10326;53.660;10.200;2023-04-08T14:27:37;11.20;79.20
20337;DHT22;10326;53.660;10.200;2023-04-08T14:30:05;11.20;79.00
20337;DHT22;10326;53.660;10.200;2023-04-08T14:32:34;11.20;78.90
20337;DHT22;10326;53.660;10.200;2023-04-08T14:35:01;11.20;78.90
20337;DHT22;10326;53.660;10.200;2023-04-08T14:37:29;11.20;79.00
20337;DHT22;10326;53.660;10.200;2023-04-08T14:39:59;11.20;79.00
20337;DHT22;10326;53.660;10.200;2023-04-08T14:42:26;11.20;79.20
20337;DHT22;10326;53.660;10.200;2023-04-08T14:44:53;11.20;79.30
20337;DHT22;10326;53.660;10.200;2023-04-08T14:47:21;11.20;79.30
20337;DHT22;10326;53.660;10.200;2023-04-08T14:49:48;11.20;79.40
20337;DHT22;10326;53.660;10.200;2023-04-08T14:52:16;11.20;79.40
20337;DHT22;10326;53.660;10.200;2023-04-08T14:54:43;11.30;79.30
20337;DHT22;10326;53.660;10.200;2023-04-08T14:57:12;11.20;79.10
20337;DHT22;10326;53.660;10.200;2023-04-08T14:59:41;11.30;79.10
20337;DHT22;10326;53.660;10.200;2023-04-08T15:02:08;11.20;79.00
20337;DHT22;10326;53.660;10.200;2023-04-08T15:04:35;11.20;79.00
20337;DHT22;10326;53.660;10.200;2023-04-08T15:07:02;11.20;79.10
20337;DHT22;10326;53.660;10.200;2023-04-08T15:09:29;11.20;79.10
20337;DHT22;10326;53.660;10.200;2023-04-08T15:11:57;11.20;79.10
20337;DHT22;10326;53.660;10.200;2023-04-08T15:14:26;11.20;79.20
20337;DHT22;10326;53.660;10.200;2023-04-08T15:16:54;11.20;79.30
20337;DHT22;10326;53.660;10.200;2023-04-08T15:19:21;11.20;79.20
20337;DHT22;10326;53.660;10.200;2023-04-08T15:21:48;11.20;79.30
20337;DHT22;10326;53.660;10.200;2023-04-08T15:24:16;11.20;79.20
20337;DHT22;10326;53.660;10.200;2023-04-08T15:26:43;11.10;79.10
20337;DHT22;10326;53.660;10.200;2023-04-08T15:29:11;11.10;79.10
20337;DHT22;10326;53.660;10.200;2023-04-08T15:31:39;11.10;79.10
20337;DHT22;10326;53.660;10.200;2023-04-08T15:34:06;11.10;79.10
20337;DHT22;10326;53.660;10.200;2023-04-08T15:36:33;11.10;79.10
20337;DHT22;10326;53.660;10.200;2023-04-08T15:39:02;11.10;79.20